sensor_id;sensor_type;location;lat;lon;timestamp;temperature;humidity
36856;DHT22;22788;51.434;6.786;2023-01-09T00:00:19;9.50;99.90
36856;DHT22;22788;51.434;6.786;2023-01-09T00:02:45;9.40;99.90
36856;DHT22;22788;51.434;6.786;2023-01-09T00:05:12;9.30;99.90
36856;DHT22;22788;51.434;6.786;2023-01-09T00:07:39;9.30;99.90
36856;DHT22;22788;51.434;6.786;2023-01-09T00:10:06;9.40;99.90
36856;DHT22;22788;51.434;6.786;2023-01-09T00:12:34;9.30;99.90
36856;DHT22;22788;51.434;6.786;2023-01-09T00:15:01;9.40;99.90
36856;DHT22;22788;51.434;6.786;2023-01-09T00:17:27;9.40;99.90
36856;DHT22;22788;51.434;6.786;2023-01-09T00:19:53;9.30;99.90
36856;DHT22;22788;51.434;6.786;2023-01-09T00:22:19;9.40;99.90
36856;DHT22;22788;51.434;6.786;2023-01-09T00:24:45;9.40;99.90
36856;DHT22;22788;51.434;6.786;2023-01-09T00:27:11;9.40;99.90
36856;DHT22;22788;51.434;6.786;2023-01-09T00:29:39;9.40;99.90
36856;DHT22;22788;51.434;6.786;2023-01-09T00:32:05;9.40;99.90
36856;DHT22;22788;51.434;6.786;2023-01-09T00:34:33;9.40;99.90
36856;DHT22;22788;51.434;6.786;2023-01-09T00:36:59;9.30;99.90
36856;DHT22;22788;51.434;6.786;2023-01-09T00:39:25;9.30;99.90
36856;DHT22;22788;51.434;6.786;2023-01-09T00:41:53;9.30;99.90
36856;DHT22;22788;51.434;6.786;2023-01-09T00:44:23;9.30;99.90
36856;DHT22;22788;51.434;6.786;2023-01-09T00:46:53;9.30;99.90
36856;DHT22;22788;51.434;6.786;2023-01-09T00:49:20;9.30;99.90
36856;DHT22;22788;51.434;6.786;2023-01-09T00:51:47;9.30;99.90
36856;DHT22;22788;51.434;6.786;2023-01-09T00:54:15;9.40;99.90
36856;DHT22;22788;51.434;6.786;2023-01-09T00:56:41;9.20;99.90
36856;DHT22;22788;51.434;6.786;2023-01-09T00:59:08;9.30;99.90
36856;DHT22;22788;51.434;6.786;2023-01-09T01:01:34;9.30;99.90
36856;DHT22;22788;51.434;6.786;2023-01-09T01:04:02;9.30;99.90
36856;DHT22;22788;51.434;6.786;2023-01-09T01:06:28;9.20;99.90
36856;DHT22;22788;51.434;6.786;2023-01-09T01:08:54;9.20;99.90
36856;DHT22;22788;51.434;6.786;2023-01-09T01:11:20;9.20;99.90
36856;DHT22;22788;51.434;6.786;2023-01-09T01:13:46;9.30;99.90
36856;DHT22;22788;51.434;6.786;2023-01-09T01:16:12;9.20;99.90
36856;DHT22;22788;51.434;6.786;2023-01-09T01:18:39;9.20;99.90
36856;DHT22;22788;51.434;6.786;2023-01-09T01:21:08;9.30;99.90
36856;DHT22;22788;51.434;6.786;2023-01-09T01:23:35;9.20;99.90
36856;DHT22;22788;51.434;6.786;2023-01-09T01:26:05;9.20;99.90
36856;DHT22;22788;51.434;6.786;2023-01-09T01:28:31;9.30;99.90
36856;DHT22;22788;51.434;6.786;2023-01-09T01:30:57;9.20;99.90
36856;DHT22;22788;51.434;6.786;2023-01-09T01:33:23;9.30;99.90
36856;DHT22;22788;51.434;6.786;2023-01-09T01:35:50;9.30;99.90
36856;DHT22;22788;51.434;6.786;2023-01-09T01:38:17;9.20;99.90
36856;DHT22;22788;51.434;6.786;2023-01-09T01:40:43;9.30;99.90
36856;DHT22;22788;51.434;6.786;2023-01-09T01:43:11;9.20;99.90
36856;DHT22;22788;51.434;6.786;2023-01-09T01:45:37;9.20;99.90
36856;DHT22;22788;51.434;6.786;2023-01-09T01:48:06;9.30;99.90
36856;DHT22;22788;51.434;6.786;2023-01-09T01:50:36;9.30;99.90
36856;DHT22;22788;51.434;6.786;2023-01-09T01:53:07;9.30;99.90
36856;DHT22;22788;51.434;6.786;2023-01-09T01:55:39;9.20;99.90
36856;DHT22;22788;51.434;6.786;2023-01-09T01:58:07;9.20;99.90
36856;DHT22;22788;51.434;6.786;2023-01-09T02:00:37;9.10;99.90
36856;DHT22;22788;51.434;6.786;2023-01-09T02:03:05;9.20;99.90
36856;DHT22;22788;51.434;6.786;2023-01-09T02:05:32;9.20;99.90
36856;DHT22;22788;51.434;6.786;2023-01-09T02:07:58;9.20;99.90
36856;DHT22;22788;51.434;6.786;2023-01-09T02:10:24;9.20;99.90
36856;DHT22;22788;51.434;6.786;2023-01-09T02:12:52;9.30;99.90
36856;DHT22;22788;51.434;6.786;2023-01-09T02:15:19;9.20;99.90
36856;DHT22;22788;51.434;6.786;2023-01-09T02:18:05;9.30;99.90
36856;DHT22;22788;51.434;6.786;2023-01-09T02:20:42;9.30;99.90
36856;DHT22;22788;51.434;6.786;2023-01-09T02:26:33;9.20;99.90
36856;DHT22;22788;51.434;6.786;2023-01-09T02:32:01;9.30;99.90
36856;DHT22;22788;51.434;6.786;2023-01-09T02:34:33;9.20;99.90
36856;DHT22;22788;51.434;6.786;2023-01-09T02:37:05;9.20;99.90
36856;DHT22;22788;51.434;6.786;2023-01-09T02:39:37;9.20;99.90
36856;DHT22;22788;51.434;6.786;2023-01-09T02:42:11;9.20;99.90
36856;DHT22;22788;51.434;6.786;2023-01-09T02:44:39;9.30;99.90
36856;DHT22;22788;51.434;6.786;2023-01-09T02:47:32;9.20;99.90
36856;DHT22;22788;51.434;6.786;2023-01-09T02:49:57;9.20;99.90
36856;DHT22;22788;51.434;6.786;2023-01-09T02:52:33;9.10;99.90
36856;DHT22;22788;51.434;6.786;2023-01-09T02:55:09;9.20;99.90
36856;DHT22;22788;51.434;6.786;2023-01-09T02:57:49;9.10;99.90
36856;DHT22;22788;51.434;6.786;2023-01-09T03:00:27;9.10;99.90
36856;DHT22;22788;51.434;6.786;2023-01-09T03:02:59;9.20;99.90
36856;DHT22;22788;51.434;6.786;2023-01-09T03:05:38;9.20;99.90
36856;DHT22;22788;51.434;6.786;2023-01-09T03:08:07;9.20;99.90
36856;DHT22;22788;51.434;6.786;2023-01-09T03:10:39;9.10;99.90
36856;DHT22;22788;51.434;6.786;2023-01-09T03:13:09;9.10;99.90
36856;DHT22;22788;51.434;6.786;2023-01-09T03:15:37;9.10;99.90
36856;DHT22;22788;51.434;6.786;2023-01-09T03:18:08;9.00;99.90
36856;DHT22;22788;51.434;6.786;2023-01-09T03:20:37;8.90;99.90
36856;DHT22;22788;51.434;6.786;2023-01-09T03:23:05;9.00;99.90
36856;DHT22;22788;51.434;6.786;2023-01-09T03:25:32;9.00;99.90
36856;DHT22;22788;51.434;6.786;2023-01-09T03:28:00;9.00;99.90
36856;DHT22;22788;51.434;6.786;2023-01-09T03:30:28;9.00;99.90
36856;DHT22;22788;51.434;6.786;2023-01-09T03:32:55;9.00;99.90
36856;DHT22;22788;51.434;6.786;2023-01-09T03:35:21;9.10;99.90
36856;DHT22;22788;51.434;6.786;2023-01-09T03:37:48;9.00;99.90
36856;DHT22;22788;51.434;6.786;2023-01-09T03:40:15;9.00;99.90
36856;DHT22;22788;51.434;6.786;2023-01-09T03:42:41;9.00;99.90
36856;DHT22;22788;51.434;6.786;2023-01-09T03:45:07;9.00;99.90
36856;DHT22;22788;51.434;6.786;2023-01-09T03:47:33;9.00;99.90
36856;DHT22;22788;51.434;6.786;2023-01-09T03:49:59;9.00;99.90
36856;DHT22;22788;51.434;6.786;2023-01-09T03:52:25;9.00;99.90
36856;DHT22;22788;51.434;6.786;2023-01-09T03:54:53;9.00;99.90
36856;DHT22;22788;51.434;6.786;2023-01-09T03:57:19;9.00;99.90
36856;DHT22;22788;51.434;6.786;2023-01-09T03:59:45;9.00;99.90
36856;DHT22;22788;51.434;6.786;2023-01-09T04:02:11;8.90;99.90
36856;DHT22;22788;51.434;6.786;2023-01-09T04:04:37;8.90;99.90
36856;DHT22;22788;51.434;6.786;2023-01-09T04:07:03;8.90;99.90
36856;DHT22;22788;51.434;6.786;2023-01-09T04:09:29;9.00;99.90
36856;DHT22;22788;51.434;6.786;2023-01-09T04:11:57;8.80;99.90
36856;DHT22;22788;51.434;6.786;2023-01-09T04:14:23;8.90;99.90
36856;DHT22;22788;51.434;6.786;2023-01-09T04:16:49;8.90;99.90
36856;DHT22;22788;51.434;6.786;2023-01-09T04:19:15;8.90;99.90
36856;DHT22;22788;51.434;6.786;2023-01-09T04:21:41;8.90;99.90
36856;DHT22;22788;51.434;6.786;2023-01-09T04:24:07;9.00;99.90
36856;DHT22;22788;51.434;6.786;2023-01-09T04:26:33;9.00;99.90
36856;DHT22;22788;51.434;6.786;2023-01-09T04:29:01;9.00;99.90
36856;DHT22;22788;51.434;6.786;2023-01-09T04:31:27;9.00;99.90
36856;DHT22;22788;51.434;6.786;2023-01-09T04:33:53;8.90;99.90
36856;DHT22;22788;51.434;6.786;2023-01-09T04:36:19;8.90;99.90
36856;DHT22;22788;51.434;6.786;2023-01-09T04:38:45;8.90;99.90
36856;DHT22;22788;51.434;6.786;2023-01-09T04:41:11;8.90;99.90
36856;DHT22;22788;51.434;6.786;2023-01-09T04:43:37;8.90;99.90
36856;DHT22;22788;51.434;6.786;2023-01-09T04:46:05;8.90;99.90
36856;DHT22;22788;51.434;6.786;2023-01-09T04:48:31;8.80;99.90
36856;DHT22;22788;51.434;6.786;2023-01-09T04:50:57;8.80;99.90
36856;DHT22;22788;51.434;6.786;2023-01-09T04:53:23;8.80;99.90
36856;DHT22;22788;51.434;6.786;2023-01-09T04:55:49;8.80;99.90
36856;DHT22;22788;51.434;6.786;2023-01-09T04:58:15;8.70;99.90
36856;DHT22;22788;51.434;6.786;2023-01-09T05:00:41;8.70;99.90
36856;DHT22;22788;51.434;6.786;2023-01-09T05:03:08;8.80;99.90
36856;DHT22;22788;51.434;6.786;2023-01-09T05:05:34;8.80;99.90
36856;DHT22;22788;51.434;6.786;2023-01-09T05:08:00;8.70;99.90
36856;DHT22;22788;51.434;6.786;2023-01-09T05:10:26;8.70;99.90
36856;DHT22;22788;51.434;6.786;2023-01-09T05:12:52;8.70;99.90
36856;DHT22;22788;51.434;6.786;2023-01-09T05:15:18;8.60;99.90
36856;DHT22;22788;51.434;6.786;2023-01-09T05:17:44;8.60;99.90
36856;DHT22;22788;51.434;6.786;2023-01-09T05:20:12;8.70;99.90
36856;DHT22;22788;51.434;6.786;2023-01-09T05:22:38;8.60;99.90
36856;DHT22;22788;51.434;6.786;2023-01-09T05:25:05;8.70;99.90
36856;DHT22;22788;51.434;6.786;2023-01-09T05:27:31;8.70;99.90
36856;DHT22;22788;51.434;6.786;2023-01-09T05:29:57;8.70;99.90
36856;DHT22;22788;51.434;6.786;2023-01-09T05:32:23;8.60;99.90
36856;DHT22;22788;51.434;6.786;2023-01-09T05:34:49;8.60;99.90
36856;DHT22;22788;51.434;6.786;2023-01-09T05:37:16;8.60;99.90
36856;DHT22;22788;51.434;6.786;2023-01-09T05:39:42;8.60;99.90
36856;DHT22;22788;51.434;6.786;2023-01-09T05:42:09;8.70;99.90
36856;DHT22;22788;51.434;6.786;2023-01-09T05:44:35;8.60;99.90
36856;DHT22;22788;51.434;6.786;2023-01-09T05:47:01;8.50;99.90
36856;DHT22;22788;51.434;6.786;2023-01-09T05:49:27;8.50;99.90
36856;DHT22;22788;51.434;6.786;2023-01-09T05:51:53;8.50;99.90
36856;DHT22;22788;51.434;6.786;2023-01-09T05:54:20;8.60;99.90
36856;DHT22;22788;51.434;6.786;2023-01-09T05:56:46;8.70;99.90
36856;DHT22;22788;51.434;6.786;2023-01-09T05:59:12;8.60;99.90
36856;DHT22;22788;51.434;6.786;2023-01-09T06:01:38;8.50;99.90
36856;DHT22;22788;51.434;6.786;2023-01-09T06:04:04;8.60;99.90
36856;DHT22;22788;51.434;6.786;2023-01-09T06:06:30;8.60;99.90
36856;DHT22;22788;51.434;6.786;2023-01-09T06:08:56;8.60;99.90
36856;DHT22;22788;51.434;6.786;2023-01-09T06:11:24;8.60;99.90
36856;DHT22;22788;51.434;6.786;2023-01-09T06:13:50;8.70;99.90
36856;DHT22;22788;51.434;6.786;2023-01-09T06:16:16;8.70;99.90
36856;DHT22;22788;51.434;6.786;2023-01-09T06:18:42;8.60;99.90
36856;DHT22;22788;51.434;6.786;2023-01-09T06:21:08;8.60;99.90
36856;DHT22;22788;51.434;6.786;2023-01-09T06:23:34;8.60;99.90
36856;DHT22;22788;51.434;6.786;2023-01-09T06:26:00;8.50;99.90
36856;DHT22;22788;51.434;6.786;2023-01-09T06:28:27;8.60;99.90
36856;DHT22;22788;51.434;6.786;2023-01-09T06:30:54;8.70;99.90
36856;DHT22;22788;51.434;6.786;2023-01-09T06:33:20;8.70;99.90
36856;DHT22;22788;51.434;6.786;2023-01-09T06:35:46;8.70;99.90
36856;DHT22;22788;51.434;6.786;2023-01-09T06:38:12;8.80;99.90
36856;DHT22;22788;51.434;6.786;2023-01-09T06:40:38;8.70;99.90
36856;DHT22;22788;51.434;6.786;2023-01-09T06:43:04;8.70;99.90
36856;DHT22;22788;51.434;6.786;2023-01-09T06:45:31;8.60;99.90
36856;DHT22;22788;51.434;6.786;2023-01-09T06:47:58;8.60;99.90
36856;DHT22;22788;51.434;6.786;2023-01-09T06:50:24;8.60;99.90
36856;DHT22;22788;51.434;6.786;2023-01-09T06:52:50;8.70;99.90
36856;DHT22;22788;51.434;6.786;2023-01-09T06:55:16;8.70;99.90
36856;DHT22;22788;51.434;6.786;2023-01-09T06:57:42;8.70;99.90
36856;DHT22;22788;51.434;6.786;2023-01-09T07:00:09;8.60;99.90
36856;DHT22;22788;51.434;6.786;2023-01-09T07:02:37;8.70;99.90
36856;DHT22;22788;51.434;6.786;2023-01-09T07:05:03;8.70;99.90
36856;DHT22;22788;51.434;6.786;2023-01-09T07:07:29;8.70;99.90
36856;DHT22;22788;51.434;6.786;2023-01-09T07:09:55;8.70;99.90
36856;DHT22;22788;51.434;6.786;2023-01-09T07:12:21;8.70;99.90
36856;DHT22;22788;51.434;6.786;2023-01-09T07:14:47;8.70;99.90
36856;DHT22;22788;51.434;6.786;2023-01-09T07:17:13;8.70;99.90
36856;DHT22;22788;51.434;6.786;2023-01-09T07:19:41;8.70;99.90
36856;DHT22;22788;51.434;6.786;2023-01-09T07:22:07;8.60;99.90
36856;DHT22;22788;51.434;6.786;2023-01-09T07:24:33;8.70;99.90
36856;DHT22;22788;51.434;6.786;2023-01-09T07:26:59;8.60;99.90
36856;DHT22;22788;51.434;6.786;2023-01-09T07:29:25;8.70;99.90
36856;DHT22;22788;51.434;6.786;2023-01-09T07:31:51;8.60;99.90
36856;DHT22;22788;51.434;6.786;2023-01-09T07:34:18;8.70;99.90
36856;DHT22;22788;51.434;6.786;2023-01-09T07:36:45;8.60;99.90
36856;DHT22;22788;51.434;6.786;2023-01-09T07:39:11;8.60;99.90
36856;DHT22;22788;51.434;6.786;2023-01-09T07:41:37;8.60;99.90
36856;DHT22;22788;51.434;6.786;2023-01-09T07:44:03;8.60;99.90
36856;DHT22;22788;51.434;6.786;2023-01-09T07:46:29;8.70;99.90
36856;DHT22;22788;51.434;6.786;2023-01-09T07:48:55;8.70;99.90
36856;DHT22;22788;51.434;6.786;2023-01-09T07:51:21;8.70;99.90
36856;DHT22;22788;51.434;6.786;2023-01-09T07:53:49;8.80;99.90
36856;DHT22;22788;51.434;6.786;2023-01-09T07:56:15;8.70;99.90
36856;DHT22;22788;51.434;6.786;2023-01-09T07:58:41;8.70;99.90
36856;DHT22;22788;51.434;6.786;2023-01-09T08:01:07;8.70;99.90
36856;DHT22;22788;51.434;6.786;2023-01-09T08:03:33;8.70;99.90
36856;DHT22;22788;51.434;6.786;2023-01-09T08:05:59;8.70;99.90
36856;DHT22;22788;51.434;6.786;2023-01-09T08:08:25;8.60;99.90
36856;DHT22;22788;51.434;6.786;2023-01-09T08:10:53;8.60;99.90
36856;DHT22;22788;51.434;6.786;2023-01-09T08:13:19;8.70;99.90
36856;DHT22;22788;51.434;6.786;2023-01-09T08:15:45;8.70;99.90
36856;DHT22;22788;51.434;6.786;2023-01-09T08:18:11;8.70;99.90
36856;DHT22;22788;51.434;6.786;2023-01-09T08:20:37;8.70;99.90
36856;DHT22;22788;51.434;6.786;2023-01-09T08:23:03;8.70;99.90
36856;DHT22;22788;51.434;6.786;2023-01-09T08:25:29;8.60;99.90
36856;DHT22;22788;51.434;6.786;2023-01-09T08:27:58;8.60;99.90
36856;DHT22;22788;51.434;6.786;2023-01-09T08:30:24;8.70;99.90
36856;DHT22;22788;51.434;6.786;2023-01-09T08:32:51;8.70;99.90
36856;DHT22;22788;51.434;6.786;2023-01-09T08:35:18;8.70;99.90
36856;DHT22;22788;51.434;6.786;2023-01-09T08:37:44;8.60;99.90
36856;DHT22;22788;51.434;6.786;2023-01-09T08:40:11;8.70;99.90
36856;DHT22;22788;51.434;6.786;2023-01-09T08:42:37;8.70;99.90
36856;DHT22;22788;51.434;6.786;2023-01-09T08:45:08;8.60;99.90
36856;DHT22;22788;51.434;6.786;2023-01-09T08:47:34;8.70;99.90
36856;DHT22;22788;51.434;6.786;2023-01-09T08:50:00;8.60;99.90
36856;DHT22;22788;51.434;6.786;2023-01-09T08:52:26;8.60;99.90
36856;DHT22;22788;51.434;6.786;2023-01-09T08:54:52;8.60;99.90
36856;DHT22;22788;51.434;6.786;2023-01-09T08:57:18;8.60;99.90
36856;DHT22;22788;51.434;6.786;2023-01-09T08:59:44;8.60;99.90
36856;DHT22;22788;51.434;6.786;2023-01-09T09:02:12;8.60;99.90
36856;DHT22;22788;51.434;6.786;2023-01-09T09:04:38;8.60;99.90
36856;DHT22;22788;51.434;6.786;2023-01-09T09:07:04;8.70;99.90
36856;DHT22;22788;51.434;6.786;2023-01-09T09:09:30;8.60;99.90
36856;DHT22;22788;51.434;6.786;2023-01-09T09:11:56;8.60;99.90
36856;DHT22;22788;51.434;6.786;2023-01-09T09:14:22;8.60;99.90
36856;DHT22;22788;51.434;6.786;2023-01-09T09:16:48;8.70;99.90
36856;DHT22;22788;51.434;6.786;2023-01-09T09:19:16;8.60;99.90
36856;DHT22;22788;51.434;6.786;2023-01-09T09:21:42;8.60;99.90
36856;DHT22;22788;51.434;6.786;2023-01-09T09:24:08;8.60;99.90
36856;DHT22;22788;51.434;6.786;2023-01-09T09:26:34;8.50;99.90
36856;DHT22;22788;51.434;6.786;2023-01-09T09:29:01;8.60;99.90
36856;DHT22;22788;51.434;6.786;2023-01-09T09:31:27;8.70;99.90
36856;DHT22;22788;51.434;6.786;2023-01-09T09:33:53;8.60;99.90
36856;DHT22;22788;51.434;6.786;2023-01-09T09:36:20;8.60;99.90
36856;DHT22;22788;51.434;6.786;2023-01-09T09:38:46;8.60;99.90
36856;DHT22;22788;51.434;6.786;2023-01-09T09:41:24;8.70;99.90
36856;DHT22;22788;51.434;6.786;2023-01-09T09:46:31;8.70;99.90
36856;DHT22;22788;51.434;6.786;2023-01-09T09:49:07;8.70;99.90
36856;DHT22;22788;51.434;6.786;2023-01-09T09:52:01;8.70;99.90
36856;DHT22;22788;51.434;6.786;2023-01-09T09:54:32;8.70;99.90
36856;DHT22;22788;51.434;6.786;2023-01-09T09:57:01;8.80;99.90
36856;DHT22;22788;51.434;6.786;2023-01-09T09:59:30;8.90;99.90
36856;DHT22;22788;51.434;6.786;2023-01-09T10:02:00;8.90;99.90
36856;DHT22;22788;51.434;6.786;2023-01-09T10:04:29;8.80;99.90
36856;DHT22;22788;51.434;6.786;2023-01-09T10:06:59;8.80;99.90
36856;DHT22;22788;51.434;6.786;2023-01-09T10:09:35;8.80;99.90
36856;DHT22;22788;51.434;6.786;2023-01-09T10:12:16;8.80;99.90
36856;DHT22;22788;51.434;6.786;2023-01-09T10:14:46;8.80;99.90
36856;DHT22;22788;51.434;6.786;2023-01-09T10:17:28;8.80;99.90
36856;DHT22;22788;51.434;6.786;2023-01-09T10:20:19;8.80;99.90
36856;DHT22;22788;51.434;6.786;2023-01-09T10:22:56;8.80;99.90
36856;DHT22;22788;51.434;6.786;2023-01-09T10:25:31;8.90;99.90
36856;DHT22;22788;51.434;6.786;2023-01-09T10:28:12;8.80;99.90
36856;DHT22;22788;51.434;6.786;2023-01-09T10:30:47;8.80;99.90
36856;DHT22;22788;51.434;6.786;2023-01-09T10:33:23;8.80;99.90
36856;DHT22;22788;51.434;6.786;2023-01-09T10:36:18;8.80;99.90
36856;DHT22;22788;51.434;6.786;2023-01-09T10:41:21;8.90;99.90
36856;DHT22;22788;51.434;6.786;2023-01-09T10:43:53;8.80;99.90
36856;DHT22;22788;51.434;6.786;2023-01-09T10:46:23;8.80;99.90
36856;DHT22;22788;51.434;6.786;2023-01-09T10:48:53;8.80;99.90
36856;DHT22;22788;51.434;6.786;2023-01-09T10:51:24;8.80;99.90
36856;DHT22;22788;51.434;6.786;2023-01-09T10:53:54;8.90;99.90
36856;DHT22;22788;51.434;6.786;2023-01-09T10:56:23;8.90;99.90
36856;DHT22;22788;51.434;6.786;2023-01-09T10:58:51;8.90;99.90
36856;DHT22;22788;51.434;6.786;2023-01-09T11:01:20;8.90;99.90
36856;DHT22;22788;51.434;6.786;2023-01-09T11:03:48;8.80;99.90
36856;DHT22;22788;51.434;6.786;2023-01-09T11:06:19;8.90;99.90
36856;DHT22;22788;51.434;6.786;2023-01-09T11:08:47;8.80;99.90
36856;DHT22;22788;51.434;6.786;2023-01-09T11:11:32;8.80;99.90
36856;DHT22;22788;51.434;6.786;2023-01-09T11:14:11;8.90;99.90
36856;DHT22;22788;51.434;6.786;2023-01-09T11:16:50;8.90;99.90
36856;DHT22;22788;51.434;6.786;2023-01-09T11:19:16;8.90;99.90
36856;DHT22;22788;51.434;6.786;2023-01-09T11:21:42;8.90;99.90
36856;DHT22;22788;51.434;6.786;2023-01-09T11:24:26;8.90;99.90
36856;DHT22;22788;51.434;6.786;2023-01-09T11:27:17;8.80;99.90
36856;DHT22;22788;51.434;6.786;2023-01-09T11:29:43;8.90;99.90
36856;DHT22;22788;51.434;6.786;2023-01-09T11:32:20;8.80;99.90
36856;DHT22;22788;51.434;6.786;2023-01-09T11:34:47;8.80;99.90
36856;DHT22;22788;51.434;6.786;2023-01-09T11:37:17;8.80;99.90
36856;DHT22;22788;51.434;6.786;2023-01-09T11:39:45;8.70;99.90
36856;DHT22;22788;51.434;6.786;2023-01-09T11:42:19;8.70;99.90
36856;DHT22;22788;51.434;6.786;2023-01-09T11:44:46;8.70;99.90
36856;DHT22;22788;51.434;6.786;2023-01-09T11:47:24;8.70;99.90
36856;DHT22;22788;51.434;6.786;2023-01-09T11:49:50;8.80;99.90
36856;DHT22;22788;51.434;6.786;2023-01-09T11:52:17;8.80;99.90
36856;DHT22;22788;51.434;6.786;2023-01-09T11:54:47;8.70;99.90
36856;DHT22;22788;51.434;6.786;2023-01-09T11:57:14;8.80;99.90
36856;DHT22;22788;51.434;6.786;2023-01-09T11:59:42;8.70;99.90
36856;DHT22;22788;51.434;6.786;2023-01-09T12:02:32;8.70;99.90
36856;DHT22;22788;51.434;6.786;2023-01-09T12:05:12;8.70;99.90
36856;DHT22;22788;51.434;6.786;2023-01-09T12:07:56;8.70;99.90
36856;DHT22;22788;51.434;6.786;2023-01-09T12:10:40;8.70;99.90
36856;DHT22;22788;51.434;6.786;2023-01-09T12:13:17;8.70;99.90
36856;DHT22;22788;51.434;6.786;2023-01-09T12:15:53;8.60;99.90
36856;DHT22;22788;51.434;6.786;2023-01-09T12:18:33;8.60;99.90
36856;DHT22;22788;51.434;6.786;2023-01-09T12:21:12;8.60;99.90
36856;DHT22;22788;51.434;6.786;2023-01-09T12:23:53;8.60;99.90
36856;DHT22;22788;51.434;6.786;2023-01-09T12:26:24;8.60;99.90
36856;DHT22;22788;51.434;6.786;2023-01-09T12:29:09;8.70;99.90
36856;DHT22;22788;51.434;6.786;2023-01-09T12:31:53;8.70;99.90
36856;DHT22;22788;51.434;6.786;2023-01-09T12:34:34;8.60;99.90
36856;DHT22;22788;51.434;6.786;2023-01-09T12:37:28;8.60;99.90
36856;DHT22;22788;51.434;6.786;2023-01-09T12:40:09;8.60;99.90
36856;DHT22;22788;51.434;6.786;2023-01-09T12:42:48;8.60;99.90
36856;DHT22;22788;51.434;6.786;2023-01-09T12:45:31;8.60;99.90
36856;DHT22;22788;51.434;6.786;2023-01-09T12:48:03;8.60;99.90
36856;DHT22;22788;51.434;6.786;2023-01-09T12:51:04;8.70;99.90
36856;DHT22;22788;51.434;6.786;2023-01-09T12:53:34;8.70;99.90
36856;DHT22;22788;51.434;6.786;2023-01-09T12:56:07;8.80;99.90
36856;DHT22;22788;51.434;6.786;2023-01-09T12:58:40;8.70;99.90
36856;DHT22;22788;51.434;6.786;2023-01-09T13:01:12;8.70;99.90
36856;DHT22;22788;51.434;6.786;2023-01-09T13:03:45;8.80;99.90
36856;DHT22;22788;51.434;6.786;2023-01-09T13:06:15;8.70;99.90
36856;DHT22;22788;51.434;6.786;2023-01-09T13:08:44;8.70;99.90
36856;DHT22;22788;51.434;6.786;2023-01-09T13:11:15;8.80;99.90
36856;DHT22;22788;51.434;6.786;2023-01-09T13:13:46;8.70;99.90
36856;DHT22;22788;51.434;6.786;2023-01-09T13:16:16;8.80;99.90
36856;DHT22;22788;51.434;6.786;2023-01-09T13:18:47;8.80;99.90
36856;DHT22;22788;51.434;6.786;2023-01-09T13:21:14;8.80;99.90
36856;DHT22;22788;51.434;6.786;2023-01-09T13:23:45;8.80;99.90
36856;DHT22;22788;51.434;6.786;2023-01-09T13:26:15;8.80;99.90
36856;DHT22;22788;51.434;6.786;2023-01-09T13:28:44;8.80;99.90
36856;DHT22;22788;51.434;6.786;2023-01-09T13:34:18;8.60;99.90
36856;DHT22;22788;51.434;6.786;2023-01-09T13:36:48;8.60;99.90
36856;DHT22;22788;51.434;6.786;2023-01-09T13:39:23;8.60;99.90
36856;DHT22;22788;51.434;6.786;2023-01-09T13:41:52;8.70;99.90
36856;DHT22;22788;51.434;6.786;2023-01-09T13:44:22;8.70;99.90
36856;DHT22;22788;51.434;6.786;2023-01-09T13:46:50;8.70;99.90
36856;DHT22;22788;51.434;6.786;2023-01-09T13:52:39;8.60;99.90
36856;DHT22;22788;51.434;6.786;2023-01-09T13:55:24;8.70;99.90
36856;DHT22;22788;51.434;6.786;2023-01-09T13:58:15;8.70;99.90
36856;DHT22;22788;51.434;6.786;2023-01-09T14:00:57;8.70;99.90
36856;DHT22;22788;51.434;6.786;2023-01-09T14:03:26;8.70;99.90
36856;DHT22;22788;51.434;6.786;2023-01-09T14:06:24;8.60;99.90
36856;DHT22;22788;51.434;6.786;2023-01-09T14:09:11;8.60;99.90
36856;DHT22;22788;51.434;6.786;2023-01-09T14:11:42;8.70;99.90
36856;DHT22;22788;51.434;6.786;2023-01-09T14:14:25;8.70;99.90
36856;DHT22;22788;51.434;6.786;2023-01-09T14:16:52;8.70;99.90
36856;DHT22;22788;51.434;6.786;2023-01-09T14:19:28;8.80;99.90
36856;DHT22;22788;51.434;6.786;2023-01-09T14:21:58;8.70;99.90
36856;DHT22;22788;51.434;6.786;2023-01-09T14:24:28;8.80;99.90
36856;DHT22;22788;51.434;6.786;2023-01-09T14:26:56;8.80;99.90
36856;DHT22;22788;51.434;6.786;2023-01-09T14:29:42;8.70;99.90
36856;DHT22;22788;51.434;6.786;2023-01-09T14:32:36;8.80;99.90
36856;DHT22;22788;51.434;6.786;2023-01-09T14:35:14;8.80;99.90
36856;DHT22;22788;51.434;6.786;2023-01-09T14:37:43;8.80;99.90
36856;DHT22;22788;51.434;6.786;2023-01-09T14:40:20;8.80;99.90
36856;DHT22;22788;51.434;6.786;2023-01-09T14:42:50;8.70;99.90
36856;DHT22;22788;51.434;6.786;2023-01-09T14:45:20;8.70;99.90
36856;DHT22;22788;51.434;6.786;2023-01-09T14:47:50;8.70;99.90
36856;DHT22;22788;51.434;6.786;2023-01-09T14:50:23;8.80;99.90
36856;DHT22;22788;51.434;6.786;2023-01-09T14:52:58;8.80;99.90
36856;DHT22;22788;51.434;6.786;2023-01-09T14:55:29;8.80;99.90
36856;DHT22;22788;51.434;6.786;2023-01-09T14:58:16;8.80;99.90
36856;DHT22;22788;51.434;6.786;2023-01-09T15:01:02;8.70;99.90
36856;DHT22;22788;51.434;6.786;2023-01-09T15:03:32;8.70;99.90
36856;DHT22;22788;51.434;6.786;2023-01-09T15:05:59;8.80;99.90
36856;DHT22;22788;51.434;6.786;2023-01-09T15:08:27;8.80;99.90
36856;DHT22;22788;51.434;6.786;2023-01-09T15:10:56;8.80;99.90
36856;DHT22;22788;51.434;6.786;2023-01-09T15:13:30;8.80;99.90
36856;DHT22;22788;51.434;6.786;2023-01-09T15:15:58;8.80;99.90
36856;DHT22;22788;51.434;6.786;2023-01-09T15:18:28;8.80;99.90
36856;DHT22;22788;51.434;6.786;2023-01-09T15:20:57;8.70;99.90
36856;DHT22;22788;51.434;6.786;2023-01-09T15:23:27;8.70;99.90
36856;DHT22;22788;51.434;6.786;2023-01-09T15:25:59;8.80;99.90
36856;DHT22;22788;51.434;6.786;2023-01-09T15:28:40;8.60;99.90
36856;DHT22;22788;51.434;6.786;2023-01-09T15:31:11;8.70;99.90
36856;DHT22;22788;51.434;6.786;2023-01-09T15:33:39;8.70;99.90
36856;DHT22;22788;51.434;6.786;2023-01-09T15:36:13;8.80;99.90
36856;DHT22;22788;51.434;6.786;2023-01-09T15:38:42;8.80;99.90
36856;DHT22;22788;51.434;6.786;2023-01-09T15:41:11;8.80;99.90
36856;DHT22;22788;51.434;6.786;2023-01-09T15:43:41;8.70;99.90
36856;DHT22;22788;51.434;6.786;2023-01-09T15:46:09;8.70;99.90
36856;DHT22;22788;51.434;6.786;2023-01-09T15:48:35;8.70;99.90
36856;DHT22;22788;51.434;6.786;2023-01-09T15:51:04;8.60;99.90
36856;DHT22;22788;51.434;6.786;2023-01-09T15:53:31;8.60;99.90
36856;DHT22;22788;51.434;6.786;2023-01-09T15:56:16;8.70;99.90
36856;DHT22;22788;51.434;6.786;2023-01-09T15:58:43;8.70;99.90
36856;DHT22;22788;51.434;6.786;2023-01-09T16:01:23;8.70;99.90
36856;DHT22;22788;51.434;6.786;2023-01-09T16:03:50;8.70;99.90
36856;DHT22;22788;51.434;6.786;2023-01-09T16:06:22;8.80;99.90
36856;DHT22;22788;51.434;6.786;2023-01-09T16:08:50;8.70;99.90
36856;DHT22;22788;51.434;6.786;2023-01-09T16:11:22;8.70;99.90
36856;DHT22;22788;51.434;6.786;2023-01-09T16:13:49;8.70;99.90
36856;DHT22;22788;51.434;6.786;2023-01-09T16:16:23;8.70;99.90
36856;DHT22;22788;51.434;6.786;2023-01-09T16:18:50;8.70;99.90